Airfield :
LOGIN :

Register | Disclaimer

   EN    FR    IT 

 










Legend :    VFR   Marginal VFR   IFR   Intensive IFR   Very Intensive IFR
Visi :
Ceiling :
>= 8 km
>= 3000ft
5 to 8 km
1000 to 3000 ft
1500m to 5 km
500 to 1000 ft
800 to 1500m
200 to 500 ft
< 800m
< 200 ft
Symbols :   Thunderstorms  Fog  Heavy snow  Heavy precipitations  Wind > 20 kt
SIGMETs :     Misc.  Thunderstorms  Icing  Turbulence  Mountain Waves  Volcanic Ashes







- Airport Elevation : 256 ft
- IATA code : KUN


EYKA - Kaunas

CURRENT METAR :
  • 220920Z 26007KT 170V340 9999 FEW024CB BKN030 22/16 Q1016

EXPIRED METARs :
  • 220850Z 27007KT 220V300 9999 BKN022 21/16 Q1016
  • 220820Z 28008KT 240V310 9999 BKN017 20/16 Q1016
  • 220750Z 27007KT 230V300 9999 FEW014CB BKN018 19/16 Q1016
  • 220720Z 28005KT 250V320 9999 FEW013CB BKN031 18/16 Q1016
  • 220650Z 28005KT 240V330 9999 FEW013CB BKN023 19/17 Q1016

TAF TAF EYKA
Valid from the 22 at 06:00 until the 23 at 06:00 UTC


220500Z 2206/2306 28010KT 9000 BKN005
BECMG 2206/2208 BKN025
TEMPO 2209/2215 29015G25KT TSRA SCT015CB
No reported NOTAMs for that airfield.



MET'MAP, your aeronautical weather chart ! - Copyright ORBIFLY December 2007 - Disclaimer

ORBIFLY MET'MAP TEAM :

Programming & Development : Alexandra Zaïnal
Concept & Development : Baudouin d'Aumeries
Co-Development & Prog : Marc-Olivier Méhu
Technical & hardware support : Manuel Goepfert

Contact : metmap@orbifly.com




SOURCES & CREDITS :

   NOAA